Time;durP1;ratioP1;P1;durP2;ratioP2;P2;SDS_P1;SDS_P2;PMS_P1;PMS_P2;Temp;Humidity;BMP_temperature;BMP_pressure;BME280_temperature;BME280_humidity;BME280_pressure;Samples;Min_cycle;Max_cycle;Signal;HPM_P1;HPM_P2
2023/04/10 00:01:48;;;;;;;5.03;4.63;;;8.30;99.90;;;;;;5069274;28;20412;-76
2023/04/10 00:04:14;;;;;;;5.38;4.88;;;8.30;1.00;;;;;;5070955;28;20382;-76
2023/04/10 00:06:40;;;;;;;5.73;5.23;;;8.20;99.90;;;;;;5070224;28;20527;-76
2023/04/10 00:09:06;;;;;;;6.03;5.20;;;8.10;1.00;;;;;;5071431;28;20462;-77
2023/04/10 00:11:32;;;;;;;5.50;4.85;;;8.20;1.00;;;;;;5071374;28;20380;-77
2023/04/10 00:13:57;;;;;;;5.03;4.53;;;8.20;99.90;;;;;;5071216;28;20391;-77
2023/04/10 00:16:23;;;;;;;5.65;5.10;;;8.00;1.00;;;;;;5071342;28;20905;-76
2023/04/10 00:18:49;;;;;;;7.67;5.33;;;7.90;99.90;;;;;;5071088;28;20391;-77
2023/04/10 00:21:14;;;;;;;5.80;5.20;;;7.90;99.90;;;;;;5071118;28;20381;-76
2023/04/10 00:23:40;;;;;;;5.70;5.10;;;7.70;99.90;;;;;;5071165;28;20407;-76
2023/04/10 00:26:05;;;;;;;5.67;5.17;;;7.70;1.00;;;;;;5069260;28;20395;-76
2023/04/10 00:28:36;;;;;;;5.50;5.00;;;7.90;99.90;;;;;;5070938;28;20470;-76
2023/04/10 00:31:03;;;;;;;5.00;4.50;;;7.70;99.90;;;;;;5074249;28;20387;-77
2023/04/10 00:33:29;;;;;;;5.20;4.70;;;7.60;1.00;;;;;;5071259;28;20392;-77
2023/04/10 00:35:54;;;;;;;5.23;4.73;;;7.60;99.90;;;;;;5070905;28;20372;-77
2023/04/10 00:38:20;;;;;;;5.07;4.60;;;7.60;99.90;;;;;;5071215;28;20509;-78
2023/04/10 00:40:45;;;;;;;5.07;4.57;;;7.60;99.90;;;;;;5069629;28;20444;-78
2023/04/10 00:43:11;;;;;;;4.80;4.20;;;7.50;1.00;;;;;;5071230;28;20383;-78
2023/04/10 00:45:38;;;;;;;4.90;4.40;;;7.50;99.90;;;;;;5070845;28;20380;-77
2023/04/10 00:48:03;;;;;;;5.20;4.63;;;7.40;99.90;;;;;;5070845;28;20390;-77
2023/04/10 00:50:29;;;;;;;5.10;4.70;;;7.40;1.00;;;;;;5069487;28;20387;-77
2023/04/10 00:52:56;;;;;;;5.00;4.50;;;7.30;33.90;;;;;;5070669;28;20384;-77
2023/04/10 00:55:22;;;;;;;5.47;4.50;;;7.40;57.30;;;;;;5070967;28;20395;-77
2023/04/10 00:57:47;;;;;;;5.18;4.15;;;7.40;1.00;;;;;;5070465;28;20404;-77
2023/04/10 01:00:14;;;;;;;5.13;4.63;;;7.40;99.90;;;;;;5070894;28;20423;-77
2023/04/10 01:02:40;;;;;;;4.90;4.40;;;7.40;63.50;;;;;;5069561;28;20376;-77
2023/04/10 01:05:07;;;;;;;5.22;4.60;;;7.40;1.00;;;;;;5070995;28;20453;-77
2023/04/10 01:07:51;;;;;;;5.13;4.63;;;7.40;65.60;;;;;;5070328;28;20392;-77
2023/04/10 01:10:25;;;;;;;4.85;4.45;;;7.50;69.40;;;;;;5070750;28;20379;-77
2023/04/10 01:13:14;;;;;;;4.85;4.35;;;7.40;62.00;;;;;;5070632;28;20384;-77
2023/04/10 01:16:01;;;;;;;5.40;4.70;;;7.30;66.90;;;;;;5061195;28;20416;-76
2023/04/10 01:18:32;;;;;;;5.88;5.28;;;7.40;1.00;;;;;;5063490;28;20453;-77
2023/04/10 01:21:01;;;;;;;4.78;4.28;;;7.30;61.30;;;;;;5071194;28;20877;-77
2023/04/10 01:23:44;;;;;;;4.60;4.20;;;7.20;66.50;;;;;;5071203;28;20631;-77
2023/04/10 01:26:11;;;;;;;5.10;4.40;;;7.30;68.60;;;;;;5070302;28;20391;-77
2023/04/10 01:28:36;;;;;;;5.00;4.50;;;7.30;66.00;;;;;;5072489;28;20411;-77
2023/04/10 01:31:03;;;;;;;4.82;4.20;;;7.20;63.90;;;;;;5078339;28;20383;-77
2023/04/10 01:33:34;;;;;;;5.18;4.70;;;7.10;74.40;;;;;;5072856;28;20391;-76
2023/04/10 01:36:02;;;;;;;4.93;4.43;;;7.20;77.70;;;;;;5070302;28;20489;-78
2023/04/10 01:38:29;;;;;;;4.85;4.38;;;7.00;75.20;;;;;;5070297;28;20391;-77
2023/04/10 01:40:56;;;;;;;4.60;4.20;;;6.90;74.80;;;;;;5070432;28;20467;-78
2023/04/10 01:43:23;;;;;;;5.10;4.60;;;6.80;99.90;;;;;;5070242;28;20475;-78
2023/04/10 01:45:50;;;;;;;5.05;4.53;;;7.00;1.00;;;;;;5070059;28;20784;-77
2023/04/10 01:48:17;;;;;;;4.90;4.05;;;7.00;1.00;;;;;;5070414;28;20384;-77
2023/04/10 01:50:44;;;;;;;5.20;4.70;;;6.90;82.50;;;;;;5070351;28;20411;-77
2023/04/10 01:53:10;;;;;;;5.25;4.60;;;6.70;86.90;;;;;;5069148;28;20876;-77
2023/04/10 01:55:36;;;;;;;5.10;4.35;;;6.60;1.00;;;;;;5070351;28;20380;-77
2023/04/10 01:58:03;;;;;;;4.60;4.20;;;6.50;99.90;;;;;;5068740;28;20395;-77
2023/04/10 02:00:29;;;;;;;4.88;4.47;;;6.30;1.00;;;;;;5070760;28;20418;-77
2023/04/10 02:02:57;;;;;;;5.47;5.00;;;6.40;99.90;;;;;;5071032;28;20411;-77
2023/04/10 02:05:29;;;;;;;4.95;4.43;;;6.40;99.90;;;;;;5069366;28;20394;-77
2023/04/10 02:07:58;;;;;;;4.70;4.20;;;6.30;99.90;;;;;;5070428;28;20983;-76
2023/04/10 02:10:30;;;;;;;5.20;4.70;;;6.30;99.90;;;;;;5070136;28;20387;-77
2023/04/10 02:13:02;;;;;;;5.40;4.90;;;6.30;99.90;;;;;;5070119;28;20402;-77
2023/04/10 02:15:31;;;;;;;4.40;4.00;;;6.20;99.40;;;;;;5065227;28;20386;-77
2023/04/10 02:17:58;;;;;;;4.82;4.32;;;6.00;99.90;;;;;;5073973;22;20440;-78
2023/04/10 02:20:24;;;;;;;4.75;4.30;;;6.00;99.90;;;;;;5072086;28;20463;-78
2023/04/10 02:22:51;;;;;;;4.13;3.72;;;5.90;99.90;;;;;;5071458;28;20481;-78
2023/04/10 02:25:16;;;;;;;4.88;4.38;;;6.00;99.90;;;;;;5071088;28;20387;-79
2023/04/10 02:27:42;;;;;;;4.50;4.10;;;6.00;99.90;;;;;;5056701;28;20384;-79
2023/04/10 02:30:08;;;;;;;4.80;4.25;;;5.90;99.90;;;;;;5057021;28;20388;-78
2023/04/10 02:32:33;;;;;;;4.57;4.18;;;5.90;99.90;;;;;;5057808;28;20388;-79
2023/04/10 02:35:00;;;;;;;5.80;4.13;;;5.80;99.90;;;;;;5057693;28;20383;-79
2023/04/10 02:37:26;;;;;;;5.10;4.60;;;5.80;99.90;;;;;;5077047;28;20403;-79
2023/04/10 02:39:53;;;;;;;4.40;4.00;;;5.80;99.90;;;;;;5082341;28;20388;-80
2023/04/10 02:42:19;;;;;;;4.90;4.43;;;5.70;99.90;;;;;;5083657;28;20380;-79
2023/04/10 02:44:45;;;;;;;4.65;4.25;;;5.70;99.90;;;;;;5082365;28;20401;-79
2023/04/10 02:47:11;;;;;;;4.50;3.90;;;5.90;99.90;;;;;;5072589;28;20928;-79
2023/04/10 02:49:36;;;;;;;4.30;3.90;;;5.80;99.90;;;;;;5073882;28;20529;-79
2023/04/10 02:52:02;;;;;;;4.23;3.83;;;5.80;99.90;;;;;;5074420;28;20375;-79
2023/04/10 02:54:28;;;;;;;4.70;4.30;;;5.80;99.90;;;;;;5074886;28;20441;-79
2023/04/10 02:56:53;;;;;;;4.80;4.27;;;5.80;99.90;;;;;;5074768;28;20399;-79
2023/04/10 02:59:19;;;;;;;6.43;4.70;;;5.70;99.90;;;;;;5074357;28;20490;-79
2023/04/10 03:01:45;;;;;;;5.67;5.00;;;5.70;99.90;;;;;;5074708;28;20397;-79
2023/04/10 03:04:11;;;;;;;5.57;4.70;;;5.60;99.90;;;;;;5074794;28;20376;-79
2023/04/10 03:06:37;;;;;;;4.90;4.40;;;5.50;99.90;;;;;;5074759;28;20387;-80
2023/04/10 03:09:02;;;;;;;4.73;4.30;;;5.60;99.90;;;;;;5074549;28;20391;-79
2023/04/10 03:11:29;;;;;;;4.50;4.10;;;5.50;99.90;;;;;;5055735;28;20376;-79
2023/04/10 03:13:57;;;;;;;4.70;4.20;;;5.50;99.90;;;;;;5074368;28;20383;-79
2023/04/10 03:16:22;;;;;;;5.63;4.85;;;5.50;99.90;;;;;;5055873;28;20486;-79
2023/04/10 03:18:48;;;;;;;4.67;4.27;;;5.50;99.90;;;;;;5073017;28;20478;-79
2023/04/10 03:21:13;;;;;;;5.30;4.80;;;5.40;99.90;;;;;;5056563;28;20418;-80
2023/04/10 03:23:39;;;;;;;4.95;4.45;;;5.30;99.90;;;;;;5080865;28;20384;-78
2023/04/10 03:26:04;;;;;;;4.80;4.30;;;5.30;99.90;;;;;;5074718;28;20375;-79
2023/04/10 03:28:31;;;;;;;5.05;4.55;;;5.30;99.90;;;;;;5056334;28;20367;-79
2023/04/10 03:30:57;;;;;;;5.25;4.75;;;5.20;99.90;;;;;;5057036;28;20391;-79
2023/04/10 03:33:22;;;;;;;4.78;4.38;;;5.20;99.90;;;;;;5074504;28;20888;-79
2023/04/10 03:35:48;;;;;;;6.15;5.07;;;5.40;99.90;;;;;;5057131;28;20380;-79
2023/04/10 03:38:14;;;;;;;5.13;4.63;;;5.30;99.90;;;;;;5073468;28;20830;-79
2023/04/10 03:40:39;;;;;;;5.25;4.75;;;5.20;99.90;;;;;;5073852;28;20379;-79
2023/04/10 03:43:05;;;;;;;5.10;4.55;;;5.20;99.90;;;;;;5074310;28;20964;-79
2023/04/10 03:45:30;;;;;;;4.80;4.30;;;5.30;99.90;;;;;;5073766;28;20395;-80
2023/04/10 03:47:58;;;;;;;5.28;4.78;;;5.30;99.90;;;;;;5073374;28;20383;-79
2023/04/10 03:50:23;;;;;;;5.28;4.55;;;5.30;99.90;;;;;;5055737;28;20838;-80
2023/04/10 03:52:50;;;;;;;4.90;4.40;;;5.30;99.90;;;;;;5074287;28;20395;-79
2023/04/10 03:55:18;;;;;;;6.13;4.80;;;5.40;99.90;;;;;;5056607;28;20388;-80
2023/04/10 03:57:47;;;;;;;5.30;4.80;;;5.20;99.90;;;;;;5073555;28;20410;-80
2023/04/10 04:00:14;;;;;;;5.50;5.00;;;5.20;99.90;;;;;;5055657;28;20803;-79
2023/04/10 04:02:40;;;;;;;5.20;4.40;;;5.30;99.90;;;;;;5073794;28;20444;-79
2023/04/10 04:05:06;;;;;;;5.57;4.78;;;5.10;99.90;;;;;;5073847;28;20376;-79
2023/04/10 04:07:31;;;;;;;4.97;4.47;;;5.10;99.90;;;;;;5074183;28;20384;-80
2023/04/10 04:09:57;;;;;;;5.20;4.70;;;4.90;99.90;;;;;;5055699;28;20379;-79
2023/04/10 04:12:23;;;;;;;5.10;4.60;;;4.90;99.90;;;;;;5073839;28;20452;-79
2023/04/10 04:14:48;;;;;;;5.40;4.63;;;4.80;99.90;;;;;;5056361;28;20910;-79
2023/04/10 04:17:14;;;;;;;5.50;4.90;;;4.80;99.90;;;;;;5036340;28;20484;-79
2023/04/10 04:19:39;;;;;;;5.35;4.45;;;4.90;99.90;;;;;;5035494;28;20397;-79
2023/04/10 04:22:05;;;;;;;5.38;4.88;;;4.90;99.90;;;;;;5053370;28;20388;-79
2023/04/10 04:24:30;;;;;;;6.35;4.78;;;4.90;99.90;;;;;;5034596;28;20389;-80
2023/04/10 04:26:56;;;;;;;5.00;4.60;;;4.80;99.90;;;;;;5034882;28;20389;-79
2023/04/10 04:29:21;;;;;;;6.72;5.03;;;4.70;1.00;;;;;;5052981;28;20385;-79
2023/04/10 04:31:47;;;;;;;4.90;4.40;;;4.80;8.80;;;;;;5035026;28;20491;-79
2023/04/10 04:34:13;;;;;;;5.47;4.97;;;4.80;1.00;;;;;;5052977;28;20388;-79
2023/04/10 04:36:38;;;;;;;5.10;4.60;;;4.80;1.00;;;;;;5035231;28;20397;-79
2023/04/10 04:39:04;;;;;;;5.20;4.70;;;4.70;1.00;;;;;;5034845;28;21050;-79
2023/04/10 04:41:31;;;;;;;5.10;4.60;;;4.60;1.00;;;;;;5036273;28;20614;-79
2023/04/10 04:43:57;;;;;;;5.30;4.80;;;4.60;33.60;;;;;;5035338;28;20806;-80
2023/04/10 04:46:23;;;;;;;5.00;4.50;;;4.60;35.20;;;;;;5051606;28;21007;-79
2023/04/10 04:48:48;;;;;;;4.70;4.30;;;4.60;29.30;;;;;;5050710;28;20394;-79
2023/04/10 04:51:14;;;;;;;5.10;4.60;;;4.70;1.00;;;;;;5052722;28;20385;-79
2023/04/10 04:53:40;;;;;;;5.40;4.90;;;4.70;1.00;;;;;;5052573;28;20872;-79
2023/04/10 04:56:05;;;;;;;5.70;5.07;;;4.80;5.90;;;;;;5051987;28;20385;-79
2023/04/10 04:58:31;;;;;;;5.20;4.70;;;4.90;1.00;;;;;;5052289;28;20392;-79
2023/04/10 05:00:57;;;;;;;5.43;4.60;;;4.90;1.00;;;;;;5051132;28;20420;-79
2023/04/10 05:03:22;;;;;;;5.82;4.30;;;4.80;1.00;;;;;;5052084;28;20386;-79
2023/04/10 05:05:48;;;;;;;5.00;4.38;;;4.80;1.00;;;;;;5052359;28;20380;-79
2023/04/10 05:08:13;;;;;;;4.28;3.88;;;4.80;1.00;;;;;;5052775;28;20482;-79
2023/04/10 05:10:39;;;;;;;4.57;4.10;;;4.70;1.00;;;;;;5035152;28;20392;-77
2023/04/10 05:13:05;;;;;;;4.20;3.80;;;4.70;1.00;;;;;;5052799;28;20377;-79
2023/04/10 05:15:30;;;;;;;4.60;4.20;;;4.80;1.00;;;;;;5057565;28;20390;-80
2023/04/10 05:17:56;;;;;;;4.67;4.20;;;4.70;1.00;;;;;;5055178;28;20387;-78
2023/04/10 05:20:21;;;;;;;4.63;4.13;;;4.70;1.00;;;;;;5072141;28;20796;-78
2023/04/10 05:22:47;;;;;;;4.40;3.80;;;4.60;1.00;;;;;;5071722;28;20376;-78
2023/04/10 05:25:13;;;;;;;4.53;4.13;;;4.60;1.00;;;;;;5072544;28;20968;-78
2023/04/10 05:27:39;;;;;;;3.53;3.22;;;4.70;20.60;;;;;;5072102;28;20486;-78
2023/04/10 05:30:05;;;;;;;4.20;3.80;;;4.60;9.90;;;;;;5053933;28;20430;-78
2023/04/10 05:32:31;;;;;;;4.53;4.13;;;4.50;10.70;;;;;;5070952;28;20412;-78
2023/04/10 05:34:56;;;;;;;4.63;4.13;;;4.50;17.00;;;;;;5071370;28;20414;-78
2023/04/10 05:37:22;;;;;;;4.70;4.20;;;4.60;12.60;;;;;;5072335;28;20390;-78
2023/04/10 05:39:47;;;;;;;5.10;4.60;;;4.60;44.80;;;;;;5071097;28;20384;-78
2023/04/10 05:42:13;;;;;;;4.13;3.83;;;4.60;95.00;;;;;;5071516;28;20411;-78
2023/04/10 05:44:39;;;;;;;5.70;4.37;;;4.70;21.60;;;;;;5072215;28;20888;-78
2023/04/10 05:47:04;;;;;;;4.40;4.00;;;4.60;14.50;;;;;;5071256;28;20407;-79
2023/04/10 05:49:30;;;;;;;6.07;4.30;;;4.70;31.00;;;;;;5053143;28;20400;-79
2023/04/10 05:51:55;;;;;;;4.40;3.97;;;4.70;21.70;;;;;;5053808;28;20376;-78
2023/04/10 05:54:21;;;;;;;4.90;4.40;;;4.80;15.40;;;;;;5071871;28;20466;-78
2023/04/10 05:56:47;;;;;;;5.40;4.43;;;4.80;16.80;;;;;;5070904;28;20414;-78
2023/04/10 05:59:12;;;;;;;4.90;4.40;;;4.80;1.00;;;;;;5071948;28;20387;-78
2023/04/10 06:01:39;;;;;;;5.40;4.30;;;4.80;42.00;;;;;;5055978;28;20416;-78
2023/04/10 06:04:05;;;;;;;5.30;4.80;;;4.90;99.90;;;;;;5076455;28;20383;-78
2023/04/10 06:06:31;;;;;;;5.10;4.13;;;5.00;10.00;;;;;;5075475;28;20399;-78
2023/04/10 06:08:57;;;;;;;5.20;4.70;;;4.90;14.50;;;;;;5057890;28;20383;-78
2023/04/10 06:11:22;;;;;;;5.00;4.50;;;5.00;99.90;;;;;;5076430;28;20379;-78
2023/04/10 06:13:48;;;;;;;5.37;4.20;;;5.10;99.90;;;;;;5075823;28;20415;-78
2023/04/10 06:16:14;;;;;;;4.33;3.83;;;5.20;99.90;;;;;;5064700;28;20393;-78
2023/04/10 06:18:40;;;;;;;4.50;4.10;;;5.20;99.90;;;;;;5037452;28;20454;-78
2023/04/10 06:21:06;;;;;;;5.07;4.57;;;5.40;99.90;;;;;;5056141;28;20924;-78
2023/04/10 06:23:31;;;;;;;5.25;4.75;;;5.50;99.90;;;;;;5056216;28;20385;-79
2023/04/10 06:25:57;;;;;;;4.47;4.07;;;5.60;99.90;;;;;;5055944;28;20523;-79
2023/04/10 06:28:22;;;;;;;4.70;4.30;;;5.60;99.90;;;;;;5061431;28;20451;-79
2023/04/10 06:30:48;;;;;;;4.50;4.10;;;5.70;99.90;;;;;;5061214;28;20389;-79
2023/04/10 06:33:15;;;;;;;4.90;4.40;;;5.90;99.90;;;;;;5057136;28;20381;-79
2023/04/10 06:35:40;;;;;;;5.00;4.50;;;5.90;99.90;;;;;;5038044;28;20386;-80
2023/04/10 06:38:06;;;;;;;4.90;4.30;;;6.10;99.90;;;;;;5068576;28;20410;-80
2023/04/10 06:40:33;;;;;;;4.82;4.32;;;6.00;99.90;;;;;;5075440;28;20380;-79
2023/04/10 06:42:59;;;;;;;4.70;4.30;;;6.20;99.90;;;;;;5059440;28;20460;-79
2023/04/10 06:45:24;;;;;;;4.40;4.00;;;6.30;99.90;;;;;;5057368;28;20391;-79
2023/04/10 06:47:50;;;;;;;4.10;3.50;;;6.40;99.90;;;;;;5075665;28;20410;-78
2023/04/10 06:50:16;;;;;;;4.68;4.00;;;6.60;99.90;;;;;;5053179;28;20506;-79
2023/04/10 06:52:46;;;;;;;4.27;3.87;;;6.70;99.90;;;;;;5055394;28;20470;-80
2023/04/10 06:55:11;;;;;;;5.70;4.20;;;6.80;99.90;;;;;;5054355;28;20548;-78
2023/04/10 06:57:38;;;;;;;4.60;4.20;;;6.90;99.90;;;;;;5053154;28;20472;-77
2023/04/10 07:00:04;;;;;;;5.35;4.10;;;7.00;99.90;;;;;;5052618;28;20887;-78
2023/04/10 07:02:29;;;;;;;4.10;3.70;;;7.10;99.90;;;;;;5054216;28;20767;-80
2023/04/10 07:04:55;;;;;;;4.20;3.80;;;8.40;99.90;;;;;;5055653;28;20397;-80
2023/04/10 07:07:21;;;;;;;4.00;3.70;;;7.60;91.80;;;;;;5037369;28;20463;-78
2023/04/10 07:09:47;;;;;;;4.20;3.80;;;7.80;72.50;;;;;;5057236;28;20867;-78
2023/04/10 07:12:12;;;;;;;4.10;3.63;;;8.00;66.50;;;;;;5040040;28;20386;-78
2023/04/10 07:14:38;;;;;;;3.30;3.00;;;8.00;66.90;;;;;;5040156;28;20461;-78
2023/04/10 07:17:03;;;;;;;3.83;3.50;;;8.10;59.40;;;;;;5075890;28;20391;-78
2023/04/10 07:19:29;;;;;;;4.20;3.58;;;8.20;63.70;;;;;;5059378;28;20396;-79
2023/04/10 07:21:54;;;;;;;4.43;4.03;;;8.30;58.10;;;;;;5077082;28;20376;-79
2023/04/10 07:24:20;;;;;;;4.00;3.60;;;8.40;56.50;;;;;;5060185;28;20470;-80
2023/04/10 07:26:46;;;;;;;4.10;3.70;;;8.50;56.00;;;;;;5076071;28;20439;-79
2023/04/10 07:29:12;;;;;;;3.63;3.33;;;8.70;55.40;;;;;;5077503;28;20380;-80
2023/04/10 07:31:38;;;;;;;4.10;3.80;;;8.70;53.10;;;;;;5077185;28;20410;-80
2023/04/10 07:34:05;;;;;;;3.90;3.45;;;8.90;49.30;;;;;;5077540;28;20794;-80
2023/04/10 07:36:30;;;;;;;4.07;3.67;;;9.00;48.30;;;;;;5056094;28;20412;-81
2023/04/10 07:38:56;;;;;;;4.37;3.97;;;9.10;47.30;;;;;;5074086;28;20383;-79
2023/04/10 07:41:22;;;;;;;4.27;3.97;;;9.20;46.30;;;;;;5074041;28;20379;-79
2023/04/10 07:43:48;;;;;;;4.70;4.30;;;9.30;44.30;;;;;;5074084;28;20793;-79
2023/04/10 07:46:14;;;;;;;4.80;4.28;;;9.40;44.80;;;;;;5073958;28;20376;-79
2023/04/10 07:48:40;;;;;;;4.20;3.80;;;9.40;43.00;;;;;;5074386;28;20467;-79
2023/04/10 07:51:08;;;;;;;4.40;4.00;;;9.60;42.90;;;;;;5074248;28;20520;-80
2023/04/10 07:53:37;;;;;;;4.40;4.00;;;9.70;42.30;;;;;;5055184;28;20384;-78
2023/04/10 07:56:02;;;;;;;4.20;3.80;;;9.80;40.00;;;;;;5073817;28;20384;-79
2023/04/10 07:58:28;;;;;;;4.57;4.18;;;9.90;38.10;;;;;;5055737;28;20441;-78
2023/04/10 08:00:53;;;;;;;5.30;4.47;;;9.90;36.90;;;;;;5073181;28;20394;-80
2023/04/10 08:03:19;;;;;;;4.30;3.90;;;10.00;34.40;;;;;;5073158;28;20403;-79
2023/04/10 08:05:45;;;;;;;4.77;4.33;;;10.00;32.80;;;;;;5073111;28;20383;-80
2023/04/10 08:08:10;;;;;;;4.20;3.80;;;10.10;33.40;;;;;;5073514;28;20410;-80
2023/04/10 08:10:37;;;;;;;3.90;3.60;;;10.00;31.50;;;;;;5055960;28;20387;-80
2023/04/10 08:13:03;;;;;;;4.40;4.00;;;10.20;31.80;;;;;;5055269;28;20380;-80
2023/04/10 08:15:28;;;;;;;4.85;4.35;;;10.30;32.10;;;;;;5068265;28;20411;-79
2023/04/10 08:17:54;;;;;;;4.13;3.78;;;10.40;31.30;;;;;;5053468;28;20476;-80
2023/04/10 08:20:19;;;;;;;5.27;4.77;;;10.40;30.10;;;;;;5053549;28;20385;-80
2023/04/10 08:22:45;;;;;;;4.30;3.90;;;10.70;29.40;;;;;;5052794;28;20396;-80
2023/04/10 08:25:11;;;;;;;3.90;3.60;;;10.60;27.90;;;;;;5052799;28;20462;-80
2023/04/10 08:27:36;;;;;;;4.70;4.20;;;10.70;29.10;;;;;;5052545;28;20926;-80
2023/04/10 08:30:02;;;;;;;5.18;4.70;;;10.80;28.90;;;;;;5052703;28;20435;-80
2023/04/10 08:32:28;;;;;;;5.07;4.57;;;10.70;28.20;;;;;;5053141;28;20864;-80
2023/04/10 08:34:53;;;;;;;5.25;4.75;;;10.80;28.10;;;;;;5053055;28;20801;-80
2023/04/10 08:37:20;;;;;;;5.50;4.70;;;11.10;27.70;;;;;;5052175;28;20429;-80
2023/04/10 08:39:45;;;;;;;4.80;4.30;;;11.20;27.70;;;;;;5036994;28;20934;-79
2023/04/10 08:42:11;;;;;;;4.80;4.40;;;11.40;26.70;;;;;;5042501;28;20385;-80
2023/04/10 08:44:37;;;;;;;5.07;4.57;;;11.60;25.30;;;;;;5035706;28;20445;-80
2023/04/10 08:47:04;;;;;;;4.78;3.90;;;11.50;24.40;;;;;;5052708;28;20402;-80
2023/04/10 08:49:43;;;;;;;4.60;4.20;;;11.50;23.90;;;;;;5051930;28;20389;-79
2023/04/10 08:52:18;;;;;;;4.80;4.30;;;11.60;23.70;;;;;;5051791;28;20389;-80
2023/04/10 08:54:47;;;;;;;4.70;4.28;;;11.60;23.50;;;;;;5051380;28;20385;-80
2023/04/10 08:57:19;;;;;;;4.43;4.03;;;11.80;23.20;;;;;;5052287;28;20381;-80
2023/04/10 08:59:50;;;;;;;4.30;3.90;;;11.90;22.50;;;;;;5051356;28;20386;-80
2023/04/10 09:02:16;;;;;;;4.95;4.45;;;12.10;21.50;;;;;;5052409;28;20378;-80
2023/04/10 09:04:48;;;;;;;4.82;4.32;;;12.10;22.80;;;;;;5052753;28;20397;-80
2023/04/10 09:07:13;;;;;;;5.32;4.82;;;12.10;22.50;;;;;;5051010;28;20492;-80
2023/04/10 09:09:39;;;;;;;4.70;4.30;;;12.30;21.80;;;;;;5035268;28;20485;-80
2023/04/10 09:12:05;;;;;;;4.85;4.45;;;12.50;22.30;;;;;;5034812;28;20420;-80
2023/04/10 09:14:32;;;;;;;4.80;4.30;;;12.40;21.70;;;;;;5052652;28;20465;-80
2023/04/10 09:17:18;;;;;;;5.10;4.60;;;12.50;21.10;;;;;;5069069;28;20920;-80
2023/04/10 09:19:46;;;;;;;5.00;4.50;;;12.60;19.70;;;;;;5064399;28;20399;-79
2023/04/10 09:22:12;;;;;;;5.78;5.03;;;12.60;19.80;;;;;;5082529;28;20372;-80
2023/04/10 09:24:41;;;;;;;4.88;4.43;;;12.70;18.20;;;;;;5055249;28;20379;-80
2023/04/10 09:27:06;;;;;;;4.80;4.40;;;12.60;18.10;;;;;;5072373;28;20396;-80
2023/04/10 09:29:39;;;;;;;4.77;4.37;;;12.70;17.80;;;;;;5072651;28;21074;-80
2023/04/10 09:32:04;;;;;;;4.82;4.40;;;12.70;18.20;;;;;;5054779;28;20391;-79
2023/04/10 09:34:30;;;;;;;4.70;4.30;;;12.60;19.20;;;;;;5072609;28;20380;-79
2023/04/10 09:36:57;;;;;;;4.90;4.50;;;12.80;19.90;;;;;;5075868;28;20383;-80
2023/04/10 09:39:34;;;;;;;4.60;4.20;;;13.10;18.10;;;;;;5058315;28;20387;-80
2023/04/10 09:42:00;;;;;;;5.05;4.55;;;13.10;16.70;;;;;;5055073;28;20394;-81
2023/04/10 09:44:32;;;;;;;4.72;4.32;;;13.00;17.10;;;;;;5076202;28;20869;-80
2023/04/10 09:47:13;;;;;;;5.20;4.70;;;13.30;16.10;;;;;;5076888;28;20400;-80
2023/04/10 09:49:47;;;;;;;4.50;4.10;;;13.30;17.40;;;;;;5078320;28;20383;-80
2023/04/10 09:52:21;;;;;;;4.32;3.92;;;13.20;18.00;;;;;;5076058;28;20403;-80
2023/04/10 09:54:47;;;;;;;4.50;4.10;;;13.40;17.30;;;;;;5074839;28;20389;-78
2023/04/10 09:57:18;;;;;;;4.80;4.20;;;13.40;16.10;;;;;;5055104;28;20385;-79
2023/04/10 09:59:48;;;;;;;5.20;4.70;;;13.70;16.00;;;;;;5037669;28;20416;-79
2023/04/10 10:02:14;;;;;;;4.25;3.85;;;13.70;14.30;;;;;;5055948;28;20807;-79
2023/04/10 10:04:43;;;;;;;4.43;4.03;;;13.90;13.80;;;;;;5055418;28;20377;-79
2023/04/10 10:07:08;;;;;;;3.70;3.40;;;13.80;13.30;;;;;;5054870;28;20417;-79
2023/04/10 10:09:35;;;;;;;4.50;3.90;;;14.00;12.20;;;;;;5055727;28;20381;-80
2023/04/10 10:12:02;;;;;;;3.88;3.55;;;14.10;10.90;;;;;;5037965;28;20396;-80
2023/04/10 10:14:29;;;;;;;4.10;3.70;;;14.10;10.50;;;;;;5037314;28;20879;-79
2023/04/10 10:16:57;;;;;;;3.53;3.22;;;14.30;11.70;;;;;;5071125;28;20384;-79
2023/04/10 10:19:41;;;;;;;3.80;3.50;;;14.60;7.90;;;;;;5074170;28;20402;-78
2023/04/10 10:22:08;;;;;;;3.70;3.40;;;14.70;7.20;;;;;;5078175;28;20384;-79
2023/04/10 10:24:37;;;;;;;3.78;3.47;;;14.90;7.20;;;;;;5075511;28;20387;-79
2023/04/10 10:27:05;;;;;;;3.70;3.40;;;15.00;7.40;;;;;;5074924;28;20415;-79
2023/04/10 10:29:31;;;;;;;3.50;3.20;;;15.20;7.60;;;;;;5057035;28;20870;-79
2023/04/10 10:31:59;;;;;;;4.10;3.70;;;15.30;7.00;;;;;;5074889;28;20388;-79
2023/04/10 10:34:25;;;;;;;4.20;3.80;;;15.20;5.80;;;;;;5074491;28;20401;-79
2023/04/10 10:36:51;;;;;;;3.78;3.47;;;15.30;7.50;;;;;;5056089;28;20803;-78
2023/04/10 10:39:43;;;;;;;4.20;3.80;;;15.60;6.10;;;;;;5061395;28;20475;-78
2023/04/10 10:42:29;;;;;;;4.10;3.70;;;15.60;7.40;;;;;;5080432;28;20528;-78
2023/04/10 10:45:07;;;;;;;4.70;4.30;;;15.50;8.20;;;;;;5076089;28;20400;-79
2023/04/10 10:47:37;;;;;;;4.57;4.18;;;15.80;7.70;;;;;;5057516;28;20744;-80
2023/04/10 10:50:03;;;;;;;4.55;4.15;;;16.30;7.20;;;;;;5075747;28;20456;-80
2023/04/10 10:52:48;;;;;;;4.50;4.10;;;16.00;7.00;;;;;;5075671;28;20897;-80
2023/04/10 10:55:38;;;;;;;4.15;3.80;;;16.40;6.80;;;;;;5075056;28;20372;-79
2023/04/10 10:58:08;;;;;;;4.32;3.92;;;16.10;5.70;;;;;;5059450;28;20392;-81
2023/04/10 11:00:49;;;;;;;4.30;3.90;;;16.70;6.00;;;;;;5076692;28;20391;-79
2023/04/10 11:03:15;;;;;;;4.70;4.30;;;16.20;7.10;;;;;;5057273;28;20487;-79
2023/04/10 11:06:01;;;;;;;4.68;4.28;;;16.50;7.30;;;;;;5074254;28;20423;-80
2023/04/10 11:08:42;;;;;;;4.80;4.40;;;16.50;6.10;;;;;;5057303;28;20404;-79
2023/04/10 11:11:08;;;;;;;5.10;4.60;;;16.80;6.80;;;;;;5074397;28;20382;-80
2023/04/10 11:13:39;;;;;;;5.00;4.60;;;16.80;6.10;;;;;;5056631;28;20387;-80
2023/04/10 11:16:09;;;;;;;4.40;4.00;;;16.60;6.00;;;;;;5046473;28;20477;-80
2023/04/10 11:18:44;;;;;;;5.00;4.00;;;16.70;5.90;;;;;;5036801;28;20457;-80
2023/04/10 11:21:20;;;;;;;5.10;4.70;;;16.80;6.60;;;;;;5037078;28;20396;-80
2023/04/10 11:23:49;;;;;;;4.70;4.30;;;16.50;6.70;;;;;;5054148;28;20399;-80
2023/04/10 11:26:40;;;;;;;4.87;4.47;;;16.80;6.20;;;;;;5053908;28;20799;-80
2023/04/10 11:29:12;;;;;;;4.85;4.20;;;16.70;5.40;;;;;;5037489;28;20444;-80
2023/04/10 11:31:39;;;;;;;4.70;4.30;;;17.50;6.00;;;;;;5055660;28;20373;-80
2023/04/10 11:34:06;;;;;;;4.77;4.37;;;17.60;5.50;;;;;;5055060;28;20385;-80
2023/04/10 11:36:34;;;;;;;4.65;4.15;;;17.50;3.10;;;;;;5053906;28;20870;-80
2023/04/10 11:39:16;;;;;;;5.22;4.20;;;17.50;2.60;;;;;;5036441;28;20413;-79
2023/04/10 11:41:53;;;;;;;3.92;3.63;;;18.30;1.60;;;;;;5037085;28;20425;-79
2023/04/10 11:44:27;;;;;;;4.37;3.97;;;18.50;1.00;;;;;;5054883;28;20377;-80
2023/04/10 11:46:52;;;;;;;3.83;3.53;;;18.90;1.00;;;;;;5035599;28;20409;-80
2023/04/10 11:49:28;;;;;;;3.70;3.40;;;19.00;1.00;;;;;;5035741;28;20393;-80
2023/04/10 11:51:54;;;;;;;3.15;2.92;;;18.10;1.00;;;;;;5054211;28;20736;-80
2023/04/10 11:54:22;;;;;;;3.33;3.03;;;18.90;1.00;;;;;;5054323;28;20386;-80
2023/04/10 11:57:11;;;;;;;3.50;3.20;;;19.50;1.00;;;;;;5053499;28;20424;-80
2023/04/10 11:59:37;;;;;;;3.63;3.33;;;18.80;1.00;;;;;;5037777;28;20389;-78
2023/04/10 12:02:06;;;;;;;4.00;3.70;;;18.60;1.00;;;;;;5043294;28;20396;-80
2023/04/10 12:04:32;;;;;;;3.97;3.67;;;18.80;1.00;;;;;;5056430;28;20394;-80
2023/04/10 12:06:58;;;;;;;4.15;3.85;;;18.70;1.00;;;;;;5034453;28;20459;-79
2023/04/10 12:09:24;;;;;;;4.60;4.20;;;18.70;1.00;;;;;;5052922;28;20393;-80
2023/04/10 12:11:58;;;;;;;4.27;3.80;;;18.60;1.00;;;;;;5034737;28;20795;-80
2023/04/10 12:14:30;;;;;;;4.30;4.00;;;18.70;1.00;;;;;;5053998;28;20382;-79
2023/04/10 12:16:56;;;;;;;4.70;4.30;;;18.90;1.00;;;;;;5052375;28;20806;-80
2023/04/10 12:19:22;;;;;;;5.57;3.80;;;19.20;1.00;;;;;;5049535;28;20457;-79
2023/04/10 12:21:48;;;;;;;3.92;3.63;;;19.20;1.00;;;;;;5073656;28;20892;-80
2023/04/10 12:24:39;;;;;;;4.50;4.10;;;18.30;1.00;;;;;;5055652;28;20410;-80
2023/04/10 12:27:05;;;;;;;3.78;3.47;;;19.40;1.00;;;;;;5072881;28;20403;-80
2023/04/10 12:29:30;;;;;;;3.97;3.67;;;19.30;1.00;;;;;;5055450;28;20521;-79
2023/04/10 12:31:56;;;;;;;3.83;3.53;;;19.40;1.00;;;;;;5054268;28;20411;-80
2023/04/10 12:34:21;;;;;;;4.37;3.97;;;19.40;1.00;;;;;;5073187;28;20399;-80
2023/04/10 12:36:52;;;;;;;4.00;3.60;;;18.90;1.00;;;;;;5075128;28;20379;-80
2023/04/10 12:39:22;;;;;;;4.27;3.87;;;19.30;1.00;;;;;;5080696;28;20387;-79
2023/04/10 12:41:48;;;;;;;3.65;3.35;;;19.30;1.00;;;;;;5064391;28;20418;-79
2023/04/10 12:44:13;;;;;;;3.70;3.40;;;19.50;1.00;;;;;;5081761;28;20391;-80
2023/04/10 12:46:40;;;;;;;4.33;3.93;;;18.80;1.00;;;;;;5081369;28;20396;-79
2023/04/10 12:49:13;;;;;;;3.90;3.60;;;18.70;1.00;;;;;;5080464;28;20405;-79
2023/04/10 12:51:46;;;;;;;3.60;3.30;;;19.30;1.00;;;;;;5064964;28;20449;-79
2023/04/10 12:54:38;;;;;;;3.87;3.57;;;19.20;1.00;;;;;;5063638;28;20395;-79
2023/04/10 12:57:05;;;;;;;3.90;3.60;;;19.50;1.00;;;;;;5057071;28;20478;-80
2023/04/10 12:59:31;;;;;;;3.80;3.50;;;19.70;1.00;;;;;;5055087;28;20886;-80